Time;durP1;ratioP1;P1;durP2;ratioP2;P2;SDS_P1;SDS_P2;PMS_P1;PMS_P2;Temp;Humidity;BMP_temperature;BMP_pressure;BME280_temperature;BME280_humidity;BME280_pressure;Samples;Min_cycle;Max_cycle;Signal;HPM_P1;HPM_P2
2023/06/30 00:01:28;;;;;;;;;;;;;;;13.68;100.00;99597.81;5052859;28;826;-57
2023/06/30 00:03:55;;;;;;;;;;;;;;;13.63;100.00;99590.00;5052769;28;842;-57
2023/06/30 00:06:23;;;;;;;;;;;;;;;13.64;100.00;99588.00;5052780;28;949;-56
2023/06/30 00:08:50;;;;;;;;;;;;;;;13.66;100.00;99589.13;5052681;28;814;-57
2023/06/30 00:11:23;;;;;;;;;;;;;;;13.74;100.00;99588.97;5052548;28;1263;-57
2023/06/30 00:13:50;;;;;;;;;;;;;;;13.74;100.00;99588.97;5052923;28;759;-56
2023/06/30 00:16:17;;;;;;;;;;;;;;;13.78;100.00;99595.22;5052953;28;794;-57
2023/06/30 00:18:44;;;;;;;;;;;;;;;13.74;100.00;99597.28;5053109;28;1913;-57
2023/06/30 00:21:11;;;;;;;;;;;;;;;13.78;100.00;99593.22;5052541;28;834;-57
2023/06/30 00:23:38;;;;;;;;;;;;;;;14.08;100.00;99599.72;5053129;28;811;-57
2023/06/30 00:26:05;;;;;;;;;;;;;;;14.46;100.00;99604.81;5052474;28;834;-58
2023/06/30 00:28:32;;;;;;;;;;;;;;;14.71;100.00;99607.03;5034824;28;1321;-57
2023/06/30 00:30:59;;;;;;;;;;;;;;;14.78;100.00;99604.03;5052589;28;842;-57
2023/06/30 00:33:26;;;;;;;;;;;;;;;14.81;100.00;99600.41;5053202;28;815;-57
2023/06/30 00:35:53;;;;;;;;;;;;;;;14.81;100.00;99603.19;5052533;28;827;-57
2023/06/30 00:38:20;;;;;;;;;;;;;;;14.72;100.00;99610.56;5052112;28;1953;-57
2023/06/30 00:40:47;;;;;;;;;;;;;;;14.65;100.00;99603.97;5052930;28;767;-57
2023/06/30 00:43:14;;;;;;;;;;;;;;;14.56;100.00;99605.81;5051411;28;881;-57
2023/06/30 00:45:41;;;;;;;;;;;;;;;14.43;100.00;99603.69;5034403;28;858;-57
2023/06/30 00:48:08;;;;;;;;;;;;;;;14.35;100.00;99610.63;5034287;28;1383;-57
2023/06/30 00:50:35;;;;;;;;;;;;;;;14.25;100.00;99612.47;5052556;28;759;-57
2023/06/30 00:53:03;;;;;;;;;;;;;;;14.15;100.00;99605.13;5052194;28;759;-57
2023/06/30 00:55:30;;;;;;;;;;;;;;;14.08;100.00;99606.09;5052163;28;882;-57
2023/06/30 00:57:57;;;;;;;;;;;;;;;14.12;100.00;99608.75;5051992;28;1893;-57
2023/06/30 01:00:24;;;;;;;;;;;;;;;14.17;100.00;99610.28;5051993;28;807;-57
2023/06/30 01:02:55;;;;;;;;;;;;;;;14.28;100.00;99608.78;5052068;28;811;-57
2023/06/30 01:05:28;;;;;;;;;;;;;;;14.40;100.00;99606.53;5051719;28;795;-57
2023/06/30 01:08:02;;;;;;;;;;;;;;;14.61;100.00;99617.19;5033763;28;1299;-57
2023/06/30 01:10:30;;;;;;;;;;;;;;;14.78;100.00;99606.81;5051679;28;899;-57
2023/06/30 01:12:57;;;;;;;;;;;;;;;14.93;100.00;99600.91;5051300;28;1355;-57
2023/06/30 01:15:24;;;;;;;;;;;;;;;15.11;100.00;99607.56;5051808;28;863;-57
2023/06/30 01:17:59;;;;;;;;;;;;;;;15.23;100.00;99603.28;5051435;28;1917;-57
2023/06/30 01:20:33;;;;;;;;;;;;;;;15.25;100.00;99600.81;5033783;28;1092;-57
2023/06/30 01:23:18;;;;;;;;;;;;;;;15.25;100.00;99598.03;5051487;28;810;-57
2023/06/30 01:25:47;;;;;;;;;;;;;;;15.20;100.00;99603.38;5051322;28;846;-57
2023/06/30 01:28:14;;;;;;;;;;;;;;;15.04;100.00;99599.41;5033609;28;1197;-57
2023/06/30 01:30:41;;;;;;;;;;;;;;;14.90;100.00;99602.56;5051373;28;933;-56
2023/06/30 01:33:08;;;;;;;;;;;;;;;14.70;100.00;99605.44;5051321;28;886;-57
2023/06/30 01:35:35;;;;;;;;;;;;;;;14.52;100.00;99610.66;5051373;28;858;-57
2023/06/30 01:38:02;;;;;;;;;;;;;;;14.33;100.00;99607.50;5051212;28;1988;-57
2023/06/30 01:40:29;;;;;;;;;;;;;;;14.15;100.00;99610.69;5051273;28;799;-57
2023/06/30 01:42:57;;;;;;;;;;;;;;;13.98;100.00;99612.66;5033479;28;1244;-57
2023/06/30 01:45:25;;;;;;;;;;;;;;;13.84;100.00;99610.94;5051239;28;802;-57
2023/06/30 01:47:52;;;;;;;;;;;;;;;13.76;100.00;99605.97;5051273;28;798;-57
2023/06/30 01:50:20;;;;;;;;;;;;;;;13.74;100.00;99597.28;5051355;28;806;-57
2023/06/30 01:52:47;;;;;;;;;;;;;;;13.77;100.00;99600.00;5051138;28;897;-57
2023/06/30 01:55:13;;;;;;;;;;;;;;;13.80;100.00;99603.91;5055151;28;866;-57
2023/06/30 01:57:40;;;;;;;;;;;;;;;13.82;100.00;99598.72;5055045;28;1890;-57
2023/06/30 02:00:07;;;;;;;;;;;;;;;13.81;100.00;99608.28;5055119;28;834;-57
2023/06/30 02:02:34;;;;;;;;;;;;;;;13.80;100.00;99598.34;5055105;28;889;-57
2023/06/30 02:05:01;;;;;;;;;;;;;;;13.73;100.00;99590.19;5055055;28;926;-57
2023/06/30 02:07:27;;;;;;;;;;;;;;;13.72;100.00;99596.94;5055213;28;905;-57
2023/06/30 02:09:53;;;;;;;;;;;;;;;13.67;100.00;99593.44;5054915;28;1021;-57
2023/06/30 02:12:21;;;;;;;;;;;;;;;13.64;100.00;99596.31;5054683;28;1353;-57
2023/06/30 02:14:48;;;;;;;;;;;;;;;13.61;100.00;99602.72;5054867;28;874;-57
2023/06/30 02:17:14;;;;;;;;;;;;;;;13.54;100.00;99595.31;5054841;28;886;-57
2023/06/30 02:19:41;;;;;;;;;;;;;;;13.45;100.00;99589.56;5054682;28;1975;-57
2023/06/30 02:22:08;;;;;;;;;;;;;;;13.37;100.00;99602.00;5036787;28;1339;-57
2023/06/30 02:24:35;;;;;;;;;;;;;;;13.31;100.00;99610.03;5054555;28;870;-57
2023/06/30 02:27:02;;;;;;;;;;;;;;;13.29;100.00;99609.69;5054579;28;838;-57
2023/06/30 02:29:31;;;;;;;;;;;;;;;13.30;100.00;99607.72;5054727;28;897;-57
2023/06/30 02:31:57;;;;;;;;;;;;;;;13.28;100.00;99602.53;5054559;28;819;-57
2023/06/30 02:35:00;;;;;;;;;;;;;;;13.26;100.00;99602.97;5054708;28;803;-57
2023/06/30 02:37:27;;;;;;;;;;;;;;;13.26;100.00;99607.75;5053324;28;985;-57
2023/06/30 02:39:54;;;;;;;;;;;;;;;13.25;100.00;99601.41;5054379;28;1956;-57
2023/06/30 02:42:21;;;;;;;;;;;;;;;13.30;100.00;99613.25;5054290;28;901;-57
2023/06/30 02:44:48;;;;;;;;;;;;;;;13.31;100.00;99606.50;5054439;28;873;-57
2023/06/30 02:47:15;;;;;;;;;;;;;;;13.30;100.00;99610.50;5054242;28;898;-57
2023/06/30 02:49:41;;;;;;;;;;;;;;;13.28;100.00;99605.31;5054212;28;862;-57
2023/06/30 02:52:09;;;;;;;;;;;;;;;13.29;100.00;99604.13;5054195;28;815;-57
2023/06/30 02:54:35;;;;;;;;;;;;;;;13.31;100.00;99609.25;5053988;28;964;-57
2023/06/30 02:57:02;;;;;;;;;;;;;;;13.31;100.00;99612.81;5054238;28;806;-57
2023/06/30 02:59:29;;;;;;;;;;;;;;;13.30;100.00;99616.03;5053985;28;2060;-57
2023/06/30 03:01:56;;;;;;;;;;;;;;;13.27;100.00;99609.28;5054243;28;791;-57
2023/06/30 03:04:23;;;;;;;;;;;;;;;13.26;100.00;99614.06;5053723;28;845;-57
2023/06/30 03:06:50;;;;;;;;;;;;;;;13.30;100.00;99614.03;5053436;28;806;-57
2023/06/30 03:09:16;;;;;;;;;;;;;;;13.36;100.00;99617.88;5053865;28;862;-57
2023/06/30 03:11:44;;;;;;;;;;;;;;;13.41;100.00;99619.38;5053851;28;1226;-57
2023/06/30 03:14:11;;;;;;;;;;;;;;;13.40;100.00;99626.94;5053794;28;928;-57
2023/06/30 03:16:38;;;;;;;;;;;;;;;13.40;100.00;99617.81;5053810;28;881;-57
2023/06/30 03:19:04;;;;;;;;;;;;;;;13.42;100.00;99624.53;5053838;28;1975;-57
2023/06/30 03:21:31;;;;;;;;;;;;;;;13.51;100.00;99631.50;5053672;28;798;-57
2023/06/30 03:23:58;;;;;;;;;;;;;;;13.57;100.00;99621.44;5053436;28;814;-57
2023/06/30 03:26:24;;;;;;;;;;;;;;;13.62;100.00;99623.72;5053748;28;794;-57
2023/06/30 03:28:51;;;;;;;;;;;;;;;13.68;100.00;99619.25;5053514;28;850;-57
2023/06/30 03:31:18;;;;;;;;;;;;;;;13.75;100.00;99627.44;5053494;28;824;-57
2023/06/30 03:33:45;;;;;;;;;;;;;;;13.86;100.00;99629.97;5053414;28;827;-57
2023/06/30 03:36:12;;;;;;;;;;;;;;;13.99;100.00;99625.31;5053441;28;802;-57
2023/06/30 03:38:39;;;;;;;;;;;;;;;14.13;100.00;99627.03;5053341;28;1989;-57
2023/06/30 03:41:06;;;;;;;;;;;;;;;14.25;100.00;99625.56;5053263;28;811;-57
2023/06/30 03:43:33;;;;;;;;;;;;;;;14.36;100.00;99620.56;5053220;28;894;-57
2023/06/30 03:46:00;;;;;;;;;;;;;;;14.46;100.00;99627.06;5053110;28;834;-57
2023/06/30 03:48:27;;;;;;;;;;;;;;;14.55;100.00;99623.66;5053197;28;814;-57
2023/06/30 03:50:54;;;;;;;;;;;;;;;14.67;100.00;99620.22;5053044;28;795;-57
2023/06/30 03:53:21;;;;;;;;;;;;;;;14.81;100.00;99625.44;5052916;28;897;-57
2023/06/30 03:55:48;;;;;;;;;;;;;;;14.95;100.00;99626.31;5052976;28;866;-57
2023/06/30 03:58:15;;;;;;;;;;;;;;;15.12;100.00;99627.84;5052898;28;1870;-57
2023/06/30 04:00:42;;;;;;;;;;;;;;;15.26;100.00;99633.03;5034977;28;1488;-57
2023/06/30 04:03:09;;;;;;;;;;;;;;;15.45;100.00;99625.75;5052843;28;839;-57
2023/06/30 04:05:35;;;;;;;;;;;;;;;15.84;100.00;99628.69;5052789;28;830;-57
2023/06/30 04:08:03;;;;;;;;;;;;;;;16.30;100.00;99626.47;5052699;28;823;-57
2023/06/30 04:10:30;;;;;;;;;;;;;;;16.53;100.00;99626.13;5034833;28;1056;-57
2023/06/30 04:12:56;;;;;;;;;;;;;;;16.47;100.00;99629.94;5052421;28;1404;-57
2023/06/30 04:15:23;;;;;;;;;;;;;;;16.50;100.00;99632.63;5052559;28;891;-57
2023/06/30 04:17:50;;;;;;;;;;;;;;;16.65;100.00;99626.59;5051416;28;1913;-57
2023/06/30 04:20:17;;;;;;;;;;;;;;;16.67;100.00;99627.69;5052678;28;838;-57
2023/06/30 04:22:45;;;;;;;;;;;;;;;16.71;100.00;99627.59;5052292;28;853;-57
2023/06/30 04:25:12;;;;;;;;;;;;;;;16.77;100.00;99628.59;5052495;28;862;-57
2023/06/30 04:27:39;;;;;;;;;;;;;;;16.84;100.00;99627.59;5052343;28;823;-57
2023/06/30 04:30:10;;;;;;;;;;;;;;;16.91;100.00;99627.34;5052266;28;818;-57
2023/06/30 04:32:37;;;;;;;;;;;;;;;16.96;100.00;99631.56;5052437;28;874;-57
2023/06/30 04:35:04;;;;;;;;;;;;;;;17.04;100.00;99632.91;5052176;28;866;-57
2023/06/30 04:37:30;;;;;;;;;;;;;;;17.17;100.00;99638.44;5052198;28;912;-57
2023/06/30 04:39:58;;;;;;;;;;;;;;;17.31;100.00;99644.31;5052087;28;1959;-57
2023/06/30 04:42:27;;;;;;;;;;;;;;;17.44;100.00;99638.69;5052045;28;803;-57
2023/06/30 04:44:55;;;;;;;;;;;;;;;17.55;100.00;99650.25;5052172;28;807;-56
2023/06/30 04:47:22;;;;;;;;;;;;;;;17.73;100.00;99649.63;5052031;28;842;-57
2023/06/30 04:49:49;;;;;;;;;;;;;;;17.84;100.00;99645.69;5051933;28;807;-57
2023/06/30 04:52:16;;;;;;;;;;;;;;;17.95;100.00;99654.44;5052205;28;842;-57
2023/06/30 04:54:43;;;;;;;;;;;;;;;18.09;100.00;99648.31;5051822;28;914;-56
2023/06/30 04:57:10;;;;;;;;;;;;;;;18.30;100.00;99659.91;5051842;28;870;-56
2023/06/30 04:59:37;;;;;;;;;;;;;;;18.51;100.00;99656.25;5051887;28;1894;-57
2023/06/30 05:02:03;;;;;;;;;;;;;;;18.71;100.00;99657.88;5051797;28;888;-56
2023/06/30 05:04:30;;;;;;;;;;;;;;;18.88;100.00;99650.81;5051799;28;850;-56
2023/06/30 05:06:57;;;;;;;;;;;;;;;18.98;100.00;99657.97;5051727;28;866;-56
2023/06/30 05:09:25;;;;;;;;;;;;;;;19.11;100.00;99669.03;5051633;28;799;-56
2023/06/30 05:11:52;;;;;;;;;;;;;;;19.24;100.00;99665.31;5051608;28;1341;-56
2023/06/30 05:14:19;;;;;;;;;;;;;;;19.51;100.00;99662.53;5051601;28;858;-56
2023/06/30 05:16:46;;;;;;;;;;;;;;;19.76;100.00;99667.06;5051468;28;818;-56
2023/06/30 05:19:13;;;;;;;;;;;;;;;19.97;100.00;99664.53;5051464;28;1914;-56
2023/06/30 05:21:40;;;;;;;;;;;;;;;20.16;100.00;99665.25;5051402;28;830;-56
2023/06/30 05:24:07;;;;;;;;;;;;;;;20.22;100.00;99657.75;5051464;28;847;-56
2023/06/30 05:26:34;;;;;;;;;;;;;;;20.43;100.00;99663.63;5051530;28;814;-56
2023/06/30 05:29:02;;;;;;;;;;;;;;;20.70;100.00;99662.75;5051027;28;791;-56
2023/06/30 05:31:29;;;;;;;;;;;;;;;21.01;100.00;99663.19;5051430;28;866;-56
2023/06/30 05:33:56;;;;;;;;;;;;;;;21.39;100.00;99666.50;5033455;28;1331;-56
2023/06/30 05:36:24;;;;;;;;;;;;;;;22.16;100.00;99662.84;5051322;28;831;-56
2023/06/30 05:38:50;;;;;;;;;;;;;;;22.78;100.00;99668.69;5051216;28;1957;-56
2023/06/30 05:41:18;;;;;;;;;;;;;;;22.84;100.00;99666.72;5051291;28;906;-56
2023/06/30 05:43:45;;;;;;;;;;;;;;;22.77;100.00;99664.31;5051488;28;860;-56
2023/06/30 05:46:12;;;;;;;;;;;;;;;22.98;100.00;99662.28;5051528;28;866;-56
2023/06/30 05:48:39;;;;;;;;;;;;;;;23.26;100.00;99665.50;5051208;28;861;-56
2023/06/30 05:51:06;;;;;;;;;;;;;;;24.00;100.00;99667.88;5051107;28;823;-56
2023/06/30 05:53:32;;;;;;;;;;;;;;;24.69;100.00;99672.81;5051221;28;819;-56
2023/06/30 05:55:59;;;;;;;;;;;;;;;25.06;100.00;99658.63;5051402;28;865;-57
2023/06/30 05:58:26;;;;;;;;;;;;;;;25.51;100.00;99662.94;5051112;28;1890;-57
2023/06/30 06:00:53;;;;;;;;;;;;;;;25.88;100.00;99657.09;5051057;28;880;-56
2023/06/30 06:03:21;;;;;;;;;;;;;;;26.19;100.00;99652.53;5051174;28;874;-56
2023/06/30 06:05:48;;;;;;;;;;;;;;;26.50;99.49;99654.31;5051005;28;859;-56
2023/06/30 06:08:15;;;;;;;;;;;;;;;26.97;97.96;99651.66;5051243;28;890;-56
2023/06/30 06:10:43;;;;;;;;;;;;;;;27.42;96.69;99651.50;5051133;28;1044;-56
2023/06/30 06:13:10;;;;;;;;;;;;;;;27.62;95.33;99646.75;5050779;28;1382;-55
2023/06/30 06:15:37;;;;;;;;;;;;;;;27.86;93.88;99648.94;5050920;28;791;-56
2023/06/30 06:18:04;;;;;;;;;;;;;;;28.15;92.26;99647.44;5050845;28;1907;-56
2023/06/30 06:20:31;;;;;;;;;;;;;;;28.54;86.83;99645.56;5050789;28;875;-55
2023/06/30 06:22:58;;;;;;;;;;;;;;;29.13;77.99;99651.69;5050884;28;823;-56
2023/06/30 06:25:25;;;;;;;;;;;;;;;29.51;73.59;99647.53;5050897;28;791;-57
2023/06/30 06:27:53;;;;;;;;;;;;;;;29.77;68.45;99646.16;5050874;28;854;-54
2023/06/30 06:30:20;;;;;;;;;;;;;;;30.42;64.49;99641.25;5050911;28;831;-56
2023/06/30 06:32:46;;;;;;;;;;;;;;;30.35;59.36;99643.97;5050786;28;844;-57
2023/06/30 06:35:13;;;;;;;;;;;;;;;30.68;57.11;99642.59;5050778;28;890;-56
2023/06/30 06:37:40;;;;;;;;;;;;;;;30.81;53.23;99641.81;5051057;28;807;-57
2023/06/30 06:40:08;;;;;;;;;;;;;;;30.61;47.53;99638.31;5051218;28;819;-56
2023/06/30 06:42:35;;;;;;;;;;;;;;;30.98;47.66;99639.44;5054387;28;827;-56
2023/06/30 06:45:03;;;;;;;;;;;;;;;31.26;46.01;99636.00;5036441;28;878;-56
2023/06/30 06:47:48;;;;;;;;;;;;;;;31.40;45.05;99638.84;5054112;28;945;-57
2023/06/30 06:50:15;;;;;;;;;;;;;;;31.64;45.86;99646.38;5054191;28;873;-56
2023/06/30 06:52:42;;;;;;;;;;;;;;;32.00;44.48;99634.38;5054200;28;881;-56
2023/06/30 06:55:08;;;;;;;;;;;;;;;32.19;43.78;99643.50;5054117;28;842;-57
2023/06/30 06:57:35;;;;;;;;;;;;;;;32.23;43.82;99637.47;5054110;28;803;-55
2023/06/30 07:00:02;;;;;;;;;;;;;;;32.06;41.39;99632.16;5053947;28;1941;-57
2023/06/30 07:02:29;;;;;;;;;;;;;;;31.64;41.75;99640.66;5054070;28;826;-57
2023/06/30 07:04:56;;;;;;;;;;;;;;;31.73;42.32;99631.63;5053963;28;861;-57
2023/06/30 07:07:23;;;;;;;;;;;;;;;32.43;41.10;99635.91;5053921;28;850;-57
2023/06/30 07:09:50;;;;;;;;;;;;;;;33.02;40.77;99641.84;5053781;28;1138;-58
2023/06/30 07:12:17;;;;;;;;;;;;;;;32.59;39.21;99636.81;5053657;28;1221;-57
2023/06/30 07:14:44;;;;;;;;;;;;;;;32.99;38.95;99640.13;5053799;28;819;-57
2023/06/30 07:17:11;;;;;;;;;;;;;;;33.50;37.07;99633.69;5053758;28;869;-57
2023/06/30 07:19:39;;;;;;;;;;;;;;;33.43;36.80;99634.41;5053508;28;1942;-57
2023/06/30 07:22:06;;;;;;;;;;;;;;;32.71;36.37;99640.88;5053617;28;839;-57
2023/06/30 07:24:33;;;;;;;;;;;;;;;32.14;37.38;99641.56;5053561;28;842;-57
2023/06/30 07:27:01;;;;;;;;;;;;;;;32.97;36.84;99639.91;5053581;28;952;-57
2023/06/30 07:29:28;;;;;;;;;;;;;;;33.55;36.52;99641.31;5053441;28;848;-57
2023/06/30 07:31:55;;;;;;;;;;;;;;;34.23;35.31;99650.69;5053332;28;882;-57
2023/06/30 07:34:23;;;;;;;;;;;;;;;34.43;34.55;99651.06;5053659;28;851;-57
2023/06/30 07:36:50;;;;;;;;;;;;;;;34.26;34.69;99654.50;5053307;28;972;-57
2023/06/30 07:39:15;;;;;;;;;;;;;;;34.35;34.04;99653.91;5053207;28;1914;-57
2023/06/30 07:41:43;;;;;;;;;;;;;;;34.06;34.85;99653.31;5052980;28;1265;-57
2023/06/30 07:44:11;;;;;;;;;;;;;;;34.80;34.63;99645.88;5052635;28;858;-57
2023/06/30 07:46:37;;;;;;;;;;;;;;;34.63;33.78;99650.13;5053249;28;911;-57
2023/06/30 07:49:05;;;;;;;;;;;;;;;34.03;34.26;99648.72;5052784;28;879;-57
2023/06/30 07:51:32;;;;;;;;;;;;;;;33.51;34.70;99643.78;5052804;28;847;-58
2023/06/30 07:54:00;;;;;;;;;;;;;;;33.47;34.95;99652.00;5053040;28;882;-57
2023/06/30 07:56:27;;;;;;;;;;;;;;;33.81;34.28;99653.84;5053063;28;814;-56
2023/06/30 07:58:55;;;;;;;;;;;;;;;34.58;34.99;99645.31;5053146;28;1943;-56
2023/06/30 08:01:22;;;;;;;;;;;;;;;34.84;33.69;99643.38;5052801;28;822;-57
2023/06/30 08:03:50;;;;;;;;;;;;;;;35.03;33.48;99645.81;5052841;28;872;-57
2023/06/30 08:06:17;;;;;;;;;;;;;;;33.59;34.22;99652.44;5052756;28;898;-57
2023/06/30 08:08:45;;;;;;;;;;;;;;;31.50;36.89;99649.28;5052728;28;819;-56
2023/06/30 08:11:12;;;;;;;;;;;;;;;32.07;37.18;99640.19;5052757;28;1132;-56
2023/06/30 08:13:39;;;;;;;;;;;;;;;33.36;34.87;99638.78;5052638;28;788;-56
2023/06/30 08:16:06;;;;;;;;;;;;;;;34.08;33.37;99644.91;5052603;28;811;-57
2023/06/30 08:18:33;;;;;;;;;;;;;;;33.91;33.29;99648.34;5052299;28;1910;-58
2023/06/30 08:21:02;;;;;;;;;;;;;;;33.86;33.56;99638.56;5052554;28;807;-57
2023/06/30 08:23:29;;;;;;;;;;;;;;;32.79;34.10;99641.69;5052698;28;858;-57
2023/06/30 08:25:56;;;;;;;;;;;;;;;30.02;39.11;99637.47;5052791;28;779;-57
2023/06/30 08:28:24;;;;;;;;;;;;;;;28.22;42.79;99646.84;5052746;28;827;-57
2023/06/30 08:30:51;;;;;;;;;;;;;;;27.61;44.79;99631.00;5052841;28;846;-56
2023/06/30 08:33:18;;;;;;;;;;;;;;;29.74;39.66;99624.44;5052825;28;827;-56
2023/06/30 08:35:46;;;;;;;;;;;;;;;32.06;35.96;99612.91;5052508;28;857;-56
2023/06/30 08:38:13;;;;;;;;;;;;;;;33.82;34.49;99617.34;5052439;28;1890;-56
2023/06/30 08:40:41;;;;;;;;;;;;;;;34.49;32.29;99614.34;5052234;28;835;-56
2023/06/30 08:43:11;;;;;;;;;;;;;;;34.30;32.49;99615.50;5052106;28;889;-56
2023/06/30 08:45:39;;;;;;;;;;;;;;;32.20;35.43;99607.91;5051984;28;910;-56
2023/06/30 08:48:08;;;;;;;;;;;;;;;31.14;38.62;99611.88;5051926;28;897;-57
2023/06/30 08:50:37;;;;;;;;;;;;;;;31.94;36.30;99615.28;5052194;28;870;-56
2023/06/30 08:53:04;;;;;;;;;;;;;;;32.54;36.50;99612.75;5051934;28;842;-56
2023/06/30 08:55:32;;;;;;;;;;;;;;;32.59;35.85;99611.84;5051945;28;814;-56
2023/06/30 08:57:59;;;;;;;;;;;;;;;30.33;36.50;99616.00;5051866;28;1890;-57
2023/06/30 09:00:25;;;;;;;;;;;;;;;29.77;36.08;99619.78;5051586;28;819;-56
2023/06/30 09:02:54;;;;;;;;;;;;;;;30.41;36.25;99610.44;5050983;28;822;-56
2023/06/30 09:05:20;;;;;;;;;;;;;;;31.37;35.56;99603.59;5051838;28;791;-57
2023/06/30 09:07:48;;;;;;;;;;;;;;;32.23;35.08;99609.63;5051147;28;960;-56
2023/06/30 09:10:14;;;;;;;;;;;;;;;32.74;34.76;99600.47;5051268;28;923;-56
2023/06/30 09:12:43;;;;;;;;;;;;;;;33.60;32.26;99604.50;5051495;28;1185;-57
2023/06/30 09:15:10;;;;;;;;;;;;;;;33.59;32.55;99600.84;5051796;28;807;-56
2023/06/30 09:17:36;;;;;;;;;;;;;;;31.87;34.65;99603.75;5051570;28;866;-57
2023/06/30 09:20:02;;;;;;;;;;;;;;;29.97;37.52;99601.31;5051482;28;1975;-57
2023/06/30 09:22:29;;;;;;;;;;;;;;;29.14;39.43;99599.91;5051562;28;886;-57
2023/06/30 09:24:56;;;;;;;;;;;;;;;28.19;41.64;99608.13;5051578;28;902;-57
2023/06/30 09:27:25;;;;;;;;;;;;;;;27.60;43.34;99613.19;5051446;28;848;-57
2023/06/30 09:29:55;;;;;;;;;;;;;;;27.70;43.84;99603.06;5051637;28;1020;-56
2023/06/30 09:32:30;;;;;;;;;;;;;;;29.55;41.07;99593.13;5051400;28;926;-56
2023/06/30 09:35:08;;;;;;;;;;;;;;;31.41;36.63;99591.81;5051268;28;842;-56
2023/06/30 09:37:44;;;;;;;;;;;;;;;32.48;35.08;99592.09;5051351;28;843;-56
2023/06/30 10:11:11;;;;;;;;;;;;;;;28.61;41.19;99568.22;5744596;22;1725;-57
2023/06/30 10:13:40;;;;;;;;;;;;;;;28.84;42.48;99563.78;5051103;28;809;-57
2023/06/30 10:16:08;;;;;;;;;;;;;;;29.80;40.66;99571.03;5054828;28;806;-56
2023/06/30 10:18:37;;;;;;;;;;;;;;;30.48;38.97;99559.22;5054765;28;1903;-56
2023/06/30 10:21:04;;;;;;;;;;;;;;;30.26;39.16;99560.41;5055143;28;853;-56
2023/06/30 10:23:32;;;;;;;;;;;;;;;29.48;40.07;99562.44;5055113;28;853;-57
2023/06/30 10:26:00;;;;;;;;;;;;;;;28.79;40.72;99566.72;5054987;28;885;-57
2023/06/30 10:28:28;;;;;;;;;;;;;;;28.59;41.29;99560.22;5054705;28;909;-57
2023/06/30 10:30:56;;;;;;;;;;;;;;;28.88;41.01;99567.09;5054729;28;866;-57
2023/06/30 10:33:23;;;;;;;;;;;;;;;28.63;40.45;99551.38;5054533;28;825;-57
2023/06/30 10:35:52;;;;;;;;;;;;;;;28.12;41.48;99551.88;5054623;28;822;-57
2023/06/30 10:38:19;;;;;;;;;;;;;;;28.47;41.54;99551.03;5054646;28;1886;-56
2023/06/30 10:40:47;;;;;;;;;;;;;;;29.44;39.33;99542.06;5054320;28;904;-56
2023/06/30 10:43:14;;;;;;;;;;;;;;;30.27;37.41;99529.81;5054494;28;972;-56
2023/06/30 10:46:00;;;;;;;;;;;;;;;31.14;36.46;99540.53;5054422;28;858;-56
2023/06/30 10:48:28;;;;;;;;;;;;;;;31.19;36.64;99545.31;5054252;28;881;-57
2023/06/30 10:50:56;;;;;;;;;;;;;;;30.23;37.89;99537.91;5054346;28;868;-57
2023/06/30 10:53:27;;;;;;;;;;;;;;;29.41;39.36;99546.75;5054450;28;905;-57
2023/06/30 10:55:57;;;;;;;;;;;;;;;28.83;40.13;99541.59;5054227;28;858;-57
2023/06/30 10:58:24;;;;;;;;;;;;;;;28.65;40.32;99541.00;5069571;28;1881;-56
2023/06/30 11:01:05;;;;;;;;;;;;;;;28.50;40.74;99537.84;5036279;28;1207;-57
2023/06/30 11:04:05;;;;;;;;;;;;;;;28.17;41.21;99539.72;5053993;28;865;-56
2023/06/30 11:06:35;;;;;;;;;;;;;;;27.98;41.16;99530.34;5031251;28;1331;-57
2023/06/30 11:09:03;;;;;;;;;;;;;;;28.15;41.06;99519.59;5054071;28;834;-57
2023/06/30 11:11:51;;;;;;;;;;;;;;;28.34;41.30;99521.72;5069125;28;1279;-56
2023/06/30 11:14:34;;;;;;;;;;;;;;;28.99;40.91;99523.53;5053780;28;1382;-57
2023/06/30 11:17:02;;;;;;;;;;;;;;;29.09;40.84;99524.72;5053849;28;803;-57
2023/06/30 11:19:30;;;;;;;;;;;;;;;28.94;40.91;99521.53;5053705;28;1906;-57
2023/06/30 11:22:16;;;;;;;;;;;;;;;28.79;41.17;99519.13;5054065;28;837;-56
2023/06/30 11:24:43;;;;;;;;;;;;;;;28.54;41.86;99518.41;5053508;28;866;-57
2023/06/30 11:27:11;;;;;;;;;;;;;;;28.00;43.19;99517.16;5052984;28;849;-57
2023/06/30 11:29:39;;;;;;;;;;;;;;;27.65;43.52;99520.78;5053525;28;806;-56
2023/06/30 11:32:07;;;;;;;;;;;;;;;28.07;43.35;99518.63;5054262;28;747;-56
2023/06/30 11:34:35;;;;;;;;;;;;;;;29.89;40.62;99501.47;5053998;28;869;-57
2023/06/30 11:37:05;;;;;;;;;;;;;;;31.49;37.48;99498.47;5053585;28;862;-57
2023/06/30 11:39:34;;;;;;;;;;;;;;;32.77;35.79;99509.88;5053273;28;1878;-58
2023/06/30 11:42:01;;;;;;;;;;;;;;;33.61;34.07;99494.28;5053302;28;842;-57
2023/06/30 11:44:29;;;;;;;;;;;;;;;34.32;31.83;99485.84;5053385;28;803;-57
2023/06/30 11:46:58;;;;;;;;;;;;;;;34.17;32.12;99492.38;5053307;28;827;-57
2023/06/30 11:49:26;;;;;;;;;;;;;;;32.72;33.33;99496.50;5053444;28;815;-57
2023/06/30 11:51:54;;;;;;;;;;;;;;;31.82;34.94;99496.09;5053136;28;972;-57
2023/06/30 11:54:28;;;;;;;;;;;;;;;31.00;36.64;99493.34;5053164;28;810;-57
2023/06/30 11:56:58;;;;;;;;;;;;;;;32.05;36.20;99490.56;5053027;28;846;-57
2023/06/30 11:59:26;;;;;;;;;;;;;;;33.99;33.35;99482.06;5053263;28;1941;-57
2023/06/30 12:01:54;;;;;;;;;;;;;;;35.10;31.03;99475.59;5053094;28;794;-57
2023/06/30 12:04:32;;;;;;;;;;;;;;;35.80;30.23;99473.78;5052883;28;897;-57
2023/06/30 12:07:05;;;;;;;;;;;;;;;36.84;29.12;99463.69;5052869;28;861;-57
2023/06/30 12:09:33;;;;;;;;;;;;;;;37.77;27.68;99466.75;5052676;28;888;-57
2023/06/30 12:12:01;;;;;;;;;;;;;;;38.39;26.49;99455.59;5052909;28;1371;-57
2023/06/30 12:14:28;;;;;;;;;;;;;;;38.84;26.08;99451.63;5052932;28;857;-57
2023/06/30 12:16:56;;;;;;;;;;;;;;;38.58;26.25;99454.09;5053004;28;825;-58
2023/06/30 12:19:29;;;;;;;;;;;;;;;38.57;25.89;99446.78;5052798;28;1887;-58
2023/06/30 12:21:59;;;;;;;;;;;;;;;38.38;26.11;99444.66;5052573;28;877;-57
2023/06/30 12:24:34;;;;;;;;;;;;;;;38.56;25.93;99439.53;5034571;28;810;-58
2023/06/30 12:27:07;;;;;;;;;;;;;;;38.87;25.58;99447.50;5052518;28;829;-58
2023/06/30 12:29:35;;;;;;;;;;;;;;;39.21;25.09;99444.22;5052368;28;791;-58
2023/06/30 12:32:15;;;;;;;;;;;;;;;39.38;24.96;99433.81;5052286;28;806;-58
2023/06/30 12:34:45;;;;;;;;;;;;;;;38.92;24.72;99435.66;5052200;28;953;-57
2023/06/30 12:37:14;;;;;;;;;;;;;;;39.26;24.03;99427.91;5051941;28;787;-57
2023/06/30 12:39:42;;;;;;;;;;;;;;;38.90;24.35;99426.84;5051558;28;1898;-58
2023/06/30 12:42:11;;;;;;;;;;;;;;;38.74;24.51;99429.28;5052260;28;909;-58
2023/06/30 12:44:38;;;;;;;;;;;;;;;39.02;24.09;99424.06;5052180;28;807;-57
2023/06/30 12:47:06;;;;;;;;;;;;;;;39.40;23.87;99413.75;5052101;28;794;-58
2023/06/30 12:49:36;;;;;;;;;;;;;;;39.05;24.27;99414.19;5052125;28;849;-58
2023/06/30 12:52:04;;;;;;;;;;;;;;;38.81;24.75;99416.03;5052090;28;818;-59
2023/06/30 12:54:31;;;;;;;;;;;;;;;38.07;24.92;99421.41;5051944;28;830;-58
2023/06/30 12:56:59;;;;;;;;;;;;;;;37.45;26.16;99427.47;5067390;28;1203;-58
2023/06/30 12:59:26;;;;;;;;;;;;;;;36.96;26.53;99430.13;5051800;28;1886;-59
2023/06/30 13:01:53;;;;;;;;;;;;;;;36.66;27.80;99423.44;5051885;28;806;-58
2023/06/30 13:04:20;;;;;;;;;;;;;;;36.55;27.39;99427.56;5051836;28;814;-58
2023/06/30 13:06:48;;;;;;;;;;;;;;;36.34;27.72;99424.41;5051816;28;806;-58
2023/06/30 13:09:15;;;;;;;;;;;;;;;36.12;27.96;99415.38;5051462;28;850;-58
2023/06/30 13:11:42;;;;;;;;;;;;;;;36.34;28.31;99410.00;5051415;28;1367;-57
2023/06/30 13:14:09;;;;;;;;;;;;;;;36.27;27.85;99405.84;5051919;28;909;-58
2023/06/30 13:16:37;;;;;;;;;;;;;;;36.03;28.48;99403.81;5051653;28;806;-58
2023/06/30 13:19:05;;;;;;;;;;;;;;;35.80;28.27;99398.28;5051583;28;1983;-58
2023/06/30 13:21:32;;;;;;;;;;;;;;;35.89;28.72;99398.41;5051536;28;1025;-58
2023/06/30 13:24:00;;;;;;;;;;;;;;;35.69;28.99;99391.69;5033550;28;865;-57
2023/06/30 13:26:27;;;;;;;;;;;;;;;35.51;28.78;99390.88;5051473;28;944;-57
2023/06/30 13:28:54;;;;;;;;;;;;;;;35.63;28.13;99381.75;5051466;28;869;-57
2023/06/30 13:31:21;;;;;;;;;;;;;;;35.57;28.72;99382.78;5051380;28;846;-58
2023/06/30 13:33:48;;;;;;;;;;;;;;;35.61;28.48;99387.34;5051484;28;803;-57
2023/06/30 13:36:15;;;;;;;;;;;;;;;35.77;27.56;99378.00;5051396;28;862;-58